Alpine, Virginia
Current Conditions -  °F | °C
As of 6:35 AM on Thursday 27 Nov 2014 (Local Time) from K8W2 Reporting Station
Overcast Overcast  
Wind Chill: 29°   Ceiling: 200
Heat Index: 29°   Visibility: 1.5mi
Dew Point: 28°   Wind: 0mph
Humidity: 99%   Direction: NA
Pressure: 30"   Gusts: NA
Location:  38.6726°N, 78.6691°W
Report Text: K8W2 271135Z AUTO 00000KT 1 1/2SM OVC002 M02/M02 A3000 RMK AO1 T10181020
Loading
Personal Weather Stations






























Interactive Weather Map New forecast layout! Learn more

10-Day Weather Forecast

Advertisements
Track Severe Weather on mobile